Terminal Aerodrome Forecast
Issued by NWS Los Angeles, CA

Home | Current Version | Previous Version | Text Only | Print | Product List | Glossary On
Versions: 1 2 3 4 5 6 7 8 9 10 11 12 13 14 15 16 17 18 19 20 21 22
000
FTUS46 KLOX 120500
TAFSMX
TAF
KSMX 120523Z 1206/1306 31010KT P6SM SKC
     FM120700 VRB03KT P6SM OVC012
     FM121000 VRB03KT P6SM OVC007
     FM121700 31008KT P6SM SCT010 SCT200
     FM122000 30014G20KT P6SM SCT200
     FM130200 30008KT P6SM SCT200=

USA.gov is the U.S. government's official web portal to all federal, state and local government web resources and services.